Time;durP1;ratioP1;P1;durP2;ratioP2;P2;SDS_P1;SDS_P2;PMS_P1;PMS_P2;Temp;Humidity;BMP_temperature;BMP_pressure;BME280_temperature;BME280_humidity;BME280_pressure;Samples;Min_cycle;Max_cycle;Signal;HPM_P1;HPM_P2
2021/12/06 00:04:40;;;;;;;17.25;10.25;;;;;;;-0.63;93.30;100558.63;10459453;28;20068;-73
2021/12/06 00:09:41;;;;;;;21.48;10.07;;;;;;;-0.59;92.53;100568.81;10459863;28;20033;-73
2021/12/06 00:14:43;;;;;;;21.55;11.52;;;;;;;-0.39;93.58;100609.38;10459457;28;20045;-73
2021/12/06 00:19:44;;;;;;;18.67;10.93;;;;;;;-0.46;93.91;100579.34;10459108;28;20140;-73
2021/12/06 00:24:45;;;;;;;21.98;11.35;;;;;;;-1.26;92.52;100418.94;10460458;28;20076;-73
2021/12/06 00:29:47;;;;;;;20.23;11.15;;;;;;;-0.36;93.58;100590.94;10460208;28;20135;-73
2021/12/06 00:34:48;;;;;;;26.83;12.20;;;;;;;-0.52;94.18;100548.41;10458837;28;20032;-73
2021/12/06 00:39:52;;;;;;;20.38;11.73;;;;;;;-0.31;93.51;100572.38;10459704;28;20416;-73
2021/12/06 00:44:53;;;;;;;21.50;10.90;;;;;;;-0.14;93.28;100598.28;10458387;28;20069;-73
2021/12/06 00:49:54;;;;;;;20.98;10.98;;;;;;;-0.18;93.93;100609.00;10457653;28;20061;-73
2021/12/06 00:54:55;;;;;;;16.45;10.65;;;;;;;-0.18;92.48;100588.97;10457574;28;20040;-73
2021/12/06 00:59:56;;;;;;;19.80;10.93;;;;;;;-0.35;93.39;100594.38;10458047;28;20045;-73
2021/12/06 01:04:57;;;;;;;21.08;11.23;;;;;;;-0.01;92.57;100625.31;10444993;28;20076;-72
2021/12/06 01:09:58;;;;;;;19.13;11.32;;;;;;;-0.22;92.67;100587.47;10417285;28;20052;-73
2021/12/06 01:14:59;;;;;;;18.77;10.68;;;;;;;-0.15;92.91;100601.84;10417966;28;20052;-73
2021/12/06 01:20:00;;;;;;;17.17;10.30;;;;;;;0.04;92.75;100625.06;10416723;28;20045;-73
2021/12/06 01:25:05;;;;;;;17.30;11.00;;;;;;;-0.13;93.35;100623.47;10417004;28;20065;-73
2021/12/06 01:30:30;;;;;;;14.88;10.02;;;;;;;-0.10;92.47;100615.44;10416834;28;20409;-73
2021/12/06 01:40:50;;;;;;;20.33;10.23;;;;;;;-0.11;93.22;100628.59;10416734;28;20102;-73
2021/12/06 01:45:51;;;;;;;14.80;9.55;;;;;;;0.23;93.60;100648.28;10398517;28;20033;-73
2021/12/06 01:50:52;;;;;;;17.70;10.18;;;;;;;0.19;93.46;100636.34;10415749;28;20048;-73
2021/12/06 01:55:53;;;;;;;17.83;10.48;;;;;;;-0.67;93.22;100499.75;10416576;28;20132;-73
2021/12/06 02:00:54;;;;;;;17.02;8.75;;;;;;;0.25;94.00;100637.75;10416346;28;20468;-73
2021/12/06 02:05:55;;;;;;;16.98;10.00;;;;;;;0.36;93.76;100641.38;10415022;28;20136;-73
2021/12/06 02:11:01;;;;;;;17.92;10.60;;;;;;;0.46;94.29;100633.78;10414466;28;20493;-74
2021/12/06 02:16:03;;;;;;;16.88;10.00;;;;;;;0.82;93.66;100674.25;10407151;28;20540;-73
2021/12/06 02:21:13;;;;;;;22.08;10.27;;;;;;;0.94;94.23;100680.47;10413182;28;20041;-73
2021/12/06 02:26:16;;;;;;;17.83;9.85;;;;;;;0.46;93.42;100625.94;10414860;28;20084;-73
2021/12/06 02:31:19;;;;;;;14.60;9.25;;;;;;;0.91;93.26;100713.72;10413910;28;20045;-73
2021/12/06 02:36:21;;;;;;;14.50;9.77;;;;;;;0.86;92.78;100686.19;10413700;28;20038;-73
2021/12/06 02:41:22;;;;;;;19.15;10.55;;;;;;;0.91;93.17;100689.34;10414518;28;20049;-74
2021/12/06 02:46:23;;;;;;;16.80;10.38;;;;;;;0.27;93.12;100602.75;10414982;28;20559;-73
2021/12/06 02:51:27;;;;;;;16.92;10.40;;;;;;;0.40;93.64;100623.72;10396050;28;20045;-73
2021/12/06 03:01:39;;;;;;;19.95;10.88;;;;;;;1.08;94.13;100707.44;10413104;28;20085;-72
2021/12/06 03:06:41;;;;;;;19.17;10.68;;;;;;;0.29;93.19;100584.34;10412574;28;20091;-73
2021/12/06 03:11:55;;;;;;;16.80;10.82;;;;;;;0.60;93.60;100639.00;10423878;28;20044;-73
2021/12/06 03:17:00;;;;;;;18.73;10.63;;;;;;;0.91;93.29;100690.19;10411272;28;20049;-73
2021/12/06 03:22:02;;;;;;;17.30;9.90;;;;;;;-0.03;93.29;100541.03;10412180;28;20043;-73
2021/12/06 03:27:04;;;;;;;23.83;10.77;;;;;;;1.00;93.91;100712.31;10413262;28;20559;-73
2021/12/06 03:32:05;;;;;;;16.58;9.93;;;;;;;1.18;93.33;100730.38;10437574;28;20033;-72
2021/12/06 03:37:08;;;;;;;22.00;10.75;;;;;;;0.89;93.94;100697.28;10454237;28;20416;-72
2021/12/06 03:42:11;;;;;;;19.98;10.50;;;;;;;0.56;93.05;100645.34;10452986;28;20124;-72
2021/12/06 03:47:20;;;;;;;20.67;10.88;;;;;;;0.90;93.90;100727.75;10453993;28;20048;-72
2021/12/06 03:52:22;;;;;;;20.98;10.88;;;;;;;1.10;93.68;100755.25;10452260;28;20047;-72
2021/12/06 03:57:23;;;;;;;23.50;10.13;;;;;;;0.79;93.29;100711.06;10454041;28;20053;-72
2021/12/06 04:02:28;;;;;;;31.00;9.73;;;;;;;0.48;93.88;100667.66;10453371;28;20550;-73
2021/12/06 04:07:28;;;;;;;24.38;9.88;;;;;;;0.97;93.89;100763.97;10453438;28;20041;-72
2021/12/06 04:12:30;;;;;;;13.88;8.73;;;;;;;0.87;93.78;100761.09;10451017;28;20106;-72
2021/12/06 04:17:30;;;;;;;23.05;10.30;;;;;;;0.97;94.01;100767.44;10419296;28;20072;-74
2021/12/06 04:22:31;;;;;;;22.50;9.95;;;;;;;0.52;94.46;100684.84;10435871;28;20045;-72
2021/12/06 04:27:32;;;;;;;23.60;9.60;;;;;;;1.13;94.41;100770.75;10411936;28;20092;-73
2021/12/06 04:32:33;;;;;;;36.40;11.73;;;;;;;1.20;94.46;100772.97;10414018;28;20045;-70
2021/12/06 04:37:34;;;;;;;27.38;11.00;;;;;;;1.23;94.71;100807.66;10418828;28;20037;-70
2021/12/06 04:42:35;;;;;;;23.88;11.55;;;;;;;1.40;94.70;100811.81;10419905;28;20044;-70
2021/12/06 04:47:36;;;;;;;28.58;11.38;;;;;;;1.44;94.79;100789.75;10418911;28;20072;-73
2021/12/06 04:52:38;;;;;;;42.20;12.80;;;;;;;0.76;94.45;100657.16;10417086;28;20052;-72
2021/12/06 04:57:44;;;;;;;48.28;12.73;;;;;;;1.73;94.32;100805.34;10419396;28;20072;-72
2021/12/06 05:02:46;;;;;;;45.33;13.63;;;;;;;-0.08;94.12;100506.53;10418009;28;20041;-72
2021/12/06 05:07:53;;;;;;;34.65;13.65;;;;;;;1.13;94.31;100707.13;10418454;28;20034;-72
2021/12/06 05:12:54;;;;;;;29.58;13.10;;;;;;;1.09;94.47;100711.72;10418514;28;20096;-72
2021/12/06 05:17:55;;;;;;;22.40;12.48;;;;;;;1.95;95.42;100836.25;10419095;28;20096;-72
2021/12/06 05:22:56;;;;;;;27.75;12.30;;;;;;;2.17;95.54;100841.75;10417689;28;20042;-72
2021/12/06 05:27:59;;;;;;;24.67;12.43;;;;;;;1.89;95.08;100794.72;10399381;28;20041;-72
2021/12/06 05:33:01;;;;;;;24.95;12.27;;;;;;;2.43;95.38;100862.75;10417471;28;20056;-73
2021/12/06 05:38:03;;;;;;;26.40;13.48;;;;;;;2.41;94.83;100860.22;10416938;28;20559;-72
2021/12/06 05:43:04;;;;;;;24.65;12.18;;;;;;;1.31;94.93;100663.22;10398307;28;20587;-72
2021/12/06 05:48:06;;;;;;;35.80;13.93;;;;;;;1.44;94.43;100687.66;10416829;28;20056;-73
2021/12/06 05:53:07;;;;;;;30.77;14.32;;;;;;;2.12;94.98;100791.41;10416685;28;20049;-73
2021/12/06 05:58:09;;;;;;;25.17;13.07;;;;;;;2.54;95.10;100846.28;10417233;28;20041;-73
2021/12/06 06:03:11;;;;;;;30.80;13.15;;;;;;;2.45;95.11;100813.66;10416184;28;20075;-73
2021/12/06 06:08:12;;;;;;;29.90;12.48;;;;;;;2.07;94.98;100751.56;10397801;28;20471;-72
2021/12/06 06:13:14;;;;;;;25.27;13.15;;;;;;;2.86;95.71;100859.84;10414057;28;20049;-72
2021/12/06 06:18:15;;;;;;;27.45;13.23;;;;;;;2.90;95.38;100835.06;10415023;28;20069;-73
2021/12/06 06:23:16;;;;;;;25.27;12.68;;;;;;;2.53;95.13;100751.03;10414558;28;20096;-72
2021/12/06 06:28:17;;;;;;;25.50;12.10;;;;;;;3.29;95.67;100859.47;10414967;28;20041;-72
2021/12/06 06:33:18;;;;;;;23.38;11.73;;;;;;;3.26;94.90;100830.78;10415014;28;20548;-72
2021/12/06 06:38:20;;;;;;;23.30;13.20;;;;;;;3.36;95.04;100830.03;10396692;28;20091;-72
2021/12/06 06:43:21;;;;;;;29.15;12.52;;;;;;;3.66;95.45;100860.31;10414700;28;20041;-73
2021/12/06 06:48:23;;;;;;;22.52;12.70;;;;;;;2.12;95.00;100575.66;10414422;28;20062;-72
2021/12/06 06:53:24;;;;;;;23.05;13.60;;;;;;;3.59;95.90;100806.50;10413684;28;20390;-72
2021/12/06 06:58:25;;;;;;;23.40;13.23;;;;;;;4.03;95.80;100837.41;10413544;28;20409;-73
2021/12/06 07:03:31;;;;;;;25.90;14.00;;;;;;;4.21;95.56;100837.00;10414620;28;20038;-72
2021/12/06 07:08:32;;;;;;;28.15;13.65;;;;;;;4.40;96.21;100833.81;10414758;28;20477;-72
2021/12/06 07:13:38;;;;;;;24.02;13.13;;;;;;;4.75;95.56;100841.66;10412455;28;20073;-72
2021/12/06 07:18:38;;;;;;;24.40;14.52;;;;;;;3.63;95.73;100622.28;10412836;28;20159;-72
2021/12/06 07:23:41;;;;;;;20.98;13.27;;;;;;;4.77;95.15;100769.53;10395754;28;20136;-72
2021/12/06 07:28:43;;;;;;;32.42;14.38;;;;;;;4.79;95.91;100722.03;10412925;28;20176;-73
2021/12/06 07:33:46;;;;;;;21.60;13.85;;;;;;;5.30;95.42;100766.22;10413094;28;20041;-70
2021/12/06 07:38:50;;;;;;;22.15;13.75;;;;;;;5.91;95.14;100821.84;10412967;28;20132;-73
2021/12/06 07:43:51;;;;;;;21.42;12.80;;;;;;;6.02;94.38;100786.72;10413070;28;20183;-72
2021/12/06 07:48:54;;;;;;;20.00;13.00;;;;;;;6.14;94.05;100761.94;10413329;28;20164;-71
2021/12/06 07:53:57;;;;;;;20.25;13.70;;;;;;;6.79;94.33;100807.47;10413121;28;20136;-72
2021/12/06 07:58:58;;;;;;;19.73;13.27;;;;;;;7.11;93.71;100769.47;10412673;28;20493;-71
2021/12/06 08:04:00;;;;;;;22.08;12.57;;;;;;;8.29;92.79;100854.06;10412349;28;20046;-71
2021/12/06 08:09:01;;;;;;;16.80;11.50;;;;;;;8.73;91.39;100858.88;10417471;28;20041;-71
2021/12/06 08:14:03;;;;;;;16.67;12.32;;;;;;;8.80;91.15;100857.34;10420916;28;20041;-71
2021/12/06 08:19:05;;;;;;;15.05;11.38;;;;;;;8.80;91.17;100844.09;10402792;28;20084;-71
2021/12/06 08:24:07;;;;;;;16.80;10.93;;;;;;;8.96;90.65;100819.66;10402474;28;20044;-72
2021/12/06 08:29:11;;;;;;;19.23;10.95;;;;;;;8.91;90.50;100805.03;10402096;28;20033;-72
2021/12/06 08:34:13;;;;;;;14.80;10.30;;;;;;;8.12;89.30;100651.00;10418523;28;20052;-72
2021/12/06 08:39:14;;;;;;;18.75;11.13;;;;;;;9.03;89.05;100820.72;10419734;28;20124;-72
2021/12/06 08:44:15;;;;;;;16.15;11.27;;;;;;;9.19;89.23;100826.22;10418789;28;20128;-71
2021/12/06 08:49:16;;;;;;;15.23;10.43;;;;;;;8.63;87.91;100718.56;10404525;28;20115;-72
2021/12/06 08:54:18;;;;;;;15.52;10.45;;;;;;;7.91;87.20;100587.72;10419063;28;20060;-72
2021/12/06 08:59:19;;;;;;;14.38;10.15;;;;;;;9.11;86.48;100796.97;10460101;28;20041;-72
2021/12/06 09:04:22;;;;;;;16.05;10.45;;;;;;;9.69;86.91;100839.06;10459398;28;20045;-71
2021/12/06 09:09:23;;;;;;;16.65;10.27;;;;;;;9.91;86.46;100839.59;10459498;28;20128;-72
2021/12/06 09:14:27;;;;;;;15.00;10.00;;;;;;;9.99;85.92;100840.53;10459354;28;20072;-71
2021/12/06 09:19:28;;;;;;;17.00;10.45;;;;;;;9.62;85.16;100768.19;10459146;28;20033;-71
2021/12/06 09:24:30;;;;;;;15.65;9.98;;;;;;;9.98;85.26;100809.63;10458324;28;20045;-72
2021/12/06 09:29:36;;;;;;;12.30;9.80;;;;;;;9.22;85.30;100664.25;10457500;28;20473;-72
2021/12/06 09:34:40;;;;;;;16.75;9.95;;;;;;;9.48;84.30;100751.81;10459263;28;20036;-71
2021/12/06 09:39:41;;;;;;;12.88;8.80;;;;;;;9.78;84.24;100824.03;10457964;28;20120;-71
2021/12/06 09:44:42;;;;;;;15.55;9.75;;;;;;;9.78;84.50;100814.28;10457580;28;20120;-72
2021/12/06 09:49:43;;;;;;;12.10;9.43;;;;;;;9.56;84.24;100791.66;10456793;28;20064;-73
2021/12/06 09:54:44;;;;;;;20.17;9.68;;;;;;;9.32;84.00;100741.88;10459098;28;20492;-72
2021/12/06 09:59:45;;;;;;;15.90;10.32;;;;;;;9.98;83.33;100819.44;10457744;28;20036;-71
2021/12/06 10:04:50;;;;;;;14.80;9.68;;;;;;;10.31;82.66;100831.19;10457529;28;20045;-72
2021/12/06 10:09:53;;;;;;;11.10;8.15;;;;;;;10.40;81.71;100842.69;10439178;28;20037;-72
2021/12/06 10:14:56;;;;;;;14.80;9.98;;;;;;;10.21;82.75;100849.00;10456162;28;20462;-71
2021/12/06 10:19:56;;;;;;;13.63;9.88;;;;;;;9.54;82.86;100737.09;10456874;28;20049;-72
2021/12/06 10:24:59;;;;;;;14.70;9.20;;;;;;;10.34;82.63;100849.47;10438962;28;20062;-71
2021/12/06 10:30:10;;;;;;;16.15;10.10;;;;;;;10.34;81.44;100825.56;10455392;28;20040;-71
2021/12/06 10:35:15;;;;;;;18.17;9.85;;;;;;;10.34;82.74;100849.47;10456815;28;20033;-72
2021/12/06 10:40:23;;;;;;;14.32;9.98;;;;;;;10.31;82.51;100848.94;10456970;28;20044;-72
2021/12/06 10:45:35;;;;;;;12.90;9.43;;;;;;;10.34;82.96;100854.78;10455929;28;20043;-72
2021/12/06 10:50:45;;;;;;;20.48;9.45;;;;;;;10.09;83.29;100836.94;10456556;28;20084;-72
2021/12/06 10:55:48;;;;;;;14.35;8.38;;;;;;;10.13;82.99;100859.53;10455509;28;20044;-70
2021/12/06 11:01:11;;;;;;;12.77;9.27;;;;;;;10.03;83.37;100860.44;10455172;28;20118;-72
2021/12/06 11:06:19;;;;;;;25.38;13.40;;;;;;;9.98;83.24;100845.97;10453881;28;20047;-72
2021/12/06 11:11:27;;;;;;;24.40;14.02;;;;;;;9.95;82.90;100828.53;10455299;28;20071;-71
2021/12/06 11:16:45;;;;;;;18.17;10.32;;;;;;;10.00;82.09;100833.38;10454352;28;20076;-71
2021/12/06 11:21:55;;;;;;;14.80;9.60;;;;;;;9.98;82.57;100845.97;10437542;28;20045;-71
2021/12/06 11:27:05;;;;;;;15.10;8.98;;;;;;;10.11;81.92;100870.31;10454142;28;20415;-71
2021/12/06 11:32:17;;;;;;;17.80;12.38;;;;;;;10.21;82.59;100863.09;10453879;28;20072;-71
2021/12/06 11:37:20;;;;;;;17.67;12.27;;;;;;;10.30;82.10;100873.84;10453698;28;20445;-71
2021/12/06 11:42:22;;;;;;;16.33;11.23;;;;;;;10.21;81.89;100878.22;10456973;28;20045;-72
2021/12/06 11:47:23;;;;;;;17.13;10.02;;;;;;;9.22;82.14;100756.19;10463743;28;20059;-71
2021/12/06 11:52:27;;;;;;;23.98;14.57;;;;;;;9.73;83.24;100892.66;10462576;28;20048;-72
2021/12/06 11:57:33;;;;;;;;;;;;;;;9.61;83.32;100881.41;10462384;28;20037;-71
2021/12/06 12:02:38;;;;;;;18.73;11.15;;;;;;;8.52;84.30;100769.88;10462805;28;19912;-72
2021/12/06 12:08:00;;;;;;;28.58;16.25;;;;;;;9.16;85.41;100894.63;10463446;28;20040;-72
2021/12/06 12:13:02;;;;;;;20.85;12.73;;;;;;;9.11;84.96;100897.69;10462528;28;20044;-72
2021/12/06 12:18:04;;;;;;;17.45;12.40;;;;;;;9.16;85.04;100911.34;10462529;28;20040;-72
2021/12/06 12:23:08;;;;;;;19.75;12.05;;;;;;;9.08;84.92;100895.31;10461888;28;20041;-71
2021/12/06 12:28:36;;;;;;;;;;;;;;;9.23;84.10;100898.34;10461821;28;20084;-72
2021/12/06 12:33:30;;;;;;;21.55;13.23;;;;;;;8.49;84.96;100827.59;10475422;28;19916;-71
2021/12/06 12:38:34;;;;;;;18.90;12.63;;;;;;;8.90;85.99;100906.66;10470126;28;20496;-72
2021/12/06 12:43:45;;;;;;;20.67;14.35;;;;;;;8.44;86.58;100841.25;10461297;28;20041;-72
2021/12/06 12:49:06;;;;;;;35.00;24.00;;;;;;;8.59;86.80;100908.69;10459958;28;20505;-72
2021/12/06 12:54:28;;;;;;;36.28;23.10;;;;;;;7.71;87.84;100820.47;10444994;28;20057;-72
2021/12/06 12:59:48;;;;;;;38.13;23.48;;;;;;;8.27;88.25;100929.28;10472728;28;20580;-72
2021/12/06 13:04:58;;;;;;;67.65;23.05;;;;;;;8.12;88.23;100942.94;10460205;28;20049;-72
2021/12/06 13:10:28;;;;;;;48.63;21.75;;;;;;;7.90;88.16;100945.81;10457537;28;20060;-74
2021/12/06 13:16:06;;;;;;;37.60;23.23;;;;;;;7.57;88.21;100924.03;10484423;28;20076;-72
2021/12/06 13:21:33;;;;;;;39.08;26.20;;;;;;;7.22;90.37;100919.97;10475631;28;20144;-69
2021/12/06 13:26:36;;;;;;;30.55;17.52;;;;;;;6.84;91.40;100881.81;10494502;28;20841;-75
2021/12/06 13:31:37;;;;;;;26.90;14.82;;;;;;;6.67;91.61;100863.97;10494753;28;20131;-73
2021/12/06 13:36:50;;;;;;;46.53;15.20;;;;;;;6.76;92.75;100894.84;10484468;28;20127;-74
2021/12/06 13:41:51;;;;;;;27.30;13.82;;;;;;;6.19;91.63;100809.03;10466924;28;20517;-73
2021/12/06 13:46:53;;;;;;;17.77;11.40;;;;;;;6.66;91.94;100925.63;10476563;28;20064;-71
2021/12/06 13:51:59;;;;;;;19.88;10.93;;;;;;;5.87;93.45;100780.88;10476229;28;20036;-69
2021/12/06 13:57:04;;;;;;;33.00;15.23;;;;;;;7.03;92.82;100963.00;10474434;28;20072;-70
2021/12/06 14:02:07;;;;;;;20.48;12.70;;;;;;;7.05;92.87;100983.97;10493558;28;20040;-69
2021/12/06 14:07:10;;;;;;;19.02;12.63;;;;;;;6.41;92.80;100850.31;10492764;28;20048;-69
2021/12/06 14:12:24;;;;;;;17.60;11.73;;;;;;;7.01;93.23;100930.56;10486590;28;20061;-69
2021/12/06 14:17:25;;;;;;;17.00;10.95;;;;;;;7.19;92.75;100961.69;10493375;28;20036;-69
2021/12/06 14:22:27;;;;;;;17.63;10.70;;;;;;;7.29;92.88;100966.03;10492794;28;20040;-69
2021/12/06 14:27:36;;;;;;;14.98;9.95;;;;;;;7.28;92.83;100939.75;10490258;28;20043;-71
2021/12/06 14:32:37;;;;;;;13.93;9.57;;;;;;;6.93;93.32;100872.28;10481501;28;20056;-70
2021/12/06 14:37:39;;;;;;;13.15;9.40;;;;;;;7.39;93.19;100930.88;10473216;28;20052;-70
2021/12/06 14:42:42;;;;;;;13.30;9.43;;;;;;;7.34;93.73;100915.44;10454144;28;20037;-70
2021/12/06 14:47:56;;;;;;;18.67;10.55;;;;;;;7.25;94.08;100892.44;10452223;28;20084;-70
2021/12/06 14:52:57;;;;;;;22.33;13.23;;;;;;;7.23;93.53;100903.13;10454876;28;20492;-70
2021/12/06 14:58:06;;;;;;;20.90;11.57;;;;;;;7.69;94.51;100989.06;10454532;28;20064;-70
2021/12/06 15:03:10;;;;;;;16.88;11.32;;;;;;;7.38;94.51;100953.84;10453012;28;20041;-72
2021/12/06 15:08:14;;;;;;;21.13;13.00;;;;;;;7.73;94.35;101002.84;10443803;28;20071;-74
2021/12/06 15:13:16;;;;;;;;;;;;;;;7.82;92.47;100998.56;10454280;28;20513;-74
2021/12/06 15:18:22;;;;;;;19.65;11.95;;;;;;;7.51;93.84;100994.13;10451608;28;20356;-69
2021/12/06 15:23:31;;;;;;;20.00;11.93;;;;;;;7.62;94.64;101029.38;10453946;28;20045;-71
2021/12/06 15:28:37;;;;;;;17.90;12.57;;;;;;;7.41;94.32;101026.75;10454473;28;20028;-70
2021/12/06 15:33:42;;;;;;;18.88;12.90;;;;;;;7.59;95.01;101038.41;10473445;28;20080;-71
2021/12/06 15:38:50;;;;;;;20.30;13.20;;;;;;;7.47;95.35;101008.56;10492655;28;20143;-72
2021/12/06 15:44:01;;;;;;;17.75;12.57;;;;;;;7.41;95.71;101010.91;10491601;28;20040;-71
2021/12/06 15:49:03;;;;;;;25.70;17.02;;;;;;;6.57;95.39;100879.72;10475596;28;20450;-71
2021/12/06 15:54:09;;;;;;;17.02;12.88;;;;;;;7.53;95.54;101060.06;10494037;28;20043;-72
2021/12/06 15:59:13;;;;;;;19.73;11.10;;;;;;;7.50;96.06;101049.75;10495248;28;20037;-72
2021/12/06 16:04:18;;;;;;;18.88;11.75;;;;;;;6.67;95.87;100922.03;10476739;28;20064;-71
2021/12/06 16:09:19;;;;;;;18.30;12.70;;;;;;;6.75;95.84;100943.34;10493506;28;20070;-70
2021/12/06 16:14:25;;;;;;;17.52;11.98;;;;;;;7.49;96.02;101045.44;10494259;28;20048;-71
2021/12/06 16:19:28;;;;;;;19.17;13.20;;;;;;;7.48;95.51;101051.72;10494587;28;20048;-71
2021/12/06 16:24:31;;;;;;;19.38;12.50;;;;;;;7.48;95.66;101051.72;10475698;28;20135;-72
2021/12/06 16:29:34;;;;;;;21.08;12.25;;;;;;;7.37;96.28;101049.97;10498531;28;20044;-72
2021/12/06 16:34:40;;;;;;;16.92;12.07;;;;;;;7.42;95.74;101065.44;10500969;28;20499;-71
2021/12/06 16:39:53;;;;;;;16.83;11.23;;;;;;;7.28;96.28;101040.19;10501345;28;20044;-71
2021/12/06 16:45:01;;;;;;;16.88;11.50;;;;;;;7.23;95.60;101037.91;10501508;28;20095;-72
2021/12/06 16:50:11;;;;;;;18.38;12.10;;;;;;;7.15;95.93;101027.19;10501762;28;20069;-72
2021/12/06 16:55:17;;;;;;;17.73;12.43;;;;;;;6.99;96.66;101034.69;10501318;28;20036;-72
2021/12/06 17:00:28;;;;;;;18.77;12.60;;;;;;;7.23;96.68;101060.88;10501004;28;20389;-72
2021/12/06 17:05:40;;;;;;;16.95;11.50;;;;;;;7.01;96.58;101024.84;10501299;28;20071;-72
2021/12/06 17:10:53;;;;;;;18.30;11.63;;;;;;;7.18;96.59;101048.06;10500309;28;20139;-72
2021/12/06 17:16:02;;;;;;;17.50;12.40;;;;;;;7.25;96.47;101057.13;10495097;28;20423;-71
2021/12/06 17:21:11;;;;;;;20.85;12.38;;;;;;;6.69;97.11;100961.50;10474902;28;20114;-72
2021/12/06 17:26:19;;;;;;;16.13;11.55;;;;;;;7.17;96.75;101046.34;10493386;28;20123;-72
2021/12/06 17:31:22;;;;;;;15.40;11.02;;;;;;;7.14;96.65;101030.75;10500632;28;20040;-72
2021/12/06 17:36:43;;;;;;;16.97;11.40;;;;;;;6.98;96.35;101009.25;10496441;28;20044;-72
2021/12/06 17:41:46;;;;;;;18.15;11.45;;;;;;;7.07;97.01;101038.38;10471885;28;20082;-72
2021/12/06 17:46:49;;;;;;;17.63;11.25;;;;;;;7.07;96.65;101059.50;10495768;28;20059;-72
2021/12/06 17:51:52;;;;;;;17.08;11.50;;;;;;;6.14;96.45;100908.84;10464332;28;20079;-72
2021/12/06 17:56:54;;;;;;;18.52;11.85;;;;;;;6.98;97.00;101038.31;10499320;28;20048;-72
2021/12/06 18:02:01;;;;;;;18.90;12.82;;;;;;;6.83;97.03;101014.84;10498530;28;20496;-72
2021/12/06 18:07:04;;;;;;;17.85;11.70;;;;;;;6.19;96.82;100906.63;10498525;28;20040;-71
2021/12/06 18:12:08;;;;;;;17.33;12.43;;;;;;;6.16;96.85;100920.09;10489336;28;20529;-72
2021/12/06 18:17:10;;;;;;;18.88;11.85;;;;;;;6.83;97.26;101033.31;10485593;28;20041;-71
2021/12/06 18:22:11;;;;;;;20.58;11.77;;;;;;;6.27;96.50;100946.44;10480139;28;20047;-72
2021/12/06 18:27:17;;;;;;;18.48;11.50;;;;;;;6.25;97.28;100943.09;10498462;28;20496;-71
2021/12/06 18:32:20;;;;;;;16.60;10.73;;;;;;;6.92;96.51;101062.59;10467141;28;20524;-72
2021/12/06 18:37:20;;;;;;;17.88;11.57;;;;;;;6.81;96.84;101045.81;10456338;28;20045;-72
2021/12/06 18:42:27;;;;;;;20.73;11.35;;;;;;;6.58;96.86;101017.81;10487301;28;20041;-72
2021/12/06 18:47:32;;;;;;;18.52;11.60;;;;;;;6.70;97.30;101039.72;10470812;28;20110;-72
2021/12/06 18:52:33;;;;;;;16.35;11.48;;;;;;;6.92;97.20;101070.50;10495467;28;20048;-72
2021/12/06 18:57:36;;;;;;;16.95;11.95;;;;;;;6.09;97.37;100911.84;10493332;28;20040;-72
2021/12/06 19:02:37;;;;;;;20.40;12.35;;;;;;;6.26;97.18;100939.50;10492578;28;20143;-72
2021/12/06 19:07:38;;;;;;;17.73;12.20;;;;;;;6.80;97.02;101020.38;10494048;28;20082;-72
2021/12/06 19:12:39;;;;;;;21.35;12.10;;;;;;;6.56;97.59;100972.25;10488317;28;20060;-73
2021/12/06 19:17:41;;;;;;;21.50;11.10;;;;;;;6.66;97.44;100993.44;10495863;28;20037;-72
2021/12/06 19:22:43;;;;;;;17.05;11.57;;;;;;;6.63;97.50;101003.28;10466087;28;20037;-72
2021/12/06 19:27:48;;;;;;;18.38;11.20;;;;;;;6.84;98.05;101034.16;10454104;28;20123;-71
2021/12/06 19:32:53;;;;;;;16.83;11.70;;;;;;;5.54;97.68;100817.91;10469565;28;20131;-72
2021/12/06 19:37:54;;;;;;;14.82;9.95;;;;;;;5.85;97.23;100883.00;10459802;28;20044;-72
2021/12/06 19:42:56;;;;;;;14.90;10.20;;;;;;;5.78;96.93;100873.91;10454150;28;20037;-71
2021/12/06 19:47:58;;;;;;;14.82;9.82;;;;;;;5.06;97.25;100753.22;10453869;28;20057;-71
2021/12/06 19:53:03;;;;;;;16.00;10.00;;;;;;;6.10;97.43;100921.44;10454017;28;20037;-72
2021/12/06 19:58:07;;;;;;;15.40;10.20;;;;;;;6.08;97.74;100931.28;10454519;28;20135;-72
2021/12/06 20:03:11;;;;;;;15.87;10.80;;;;;;;6.02;97.77;100915.94;10456049;28;20127;-71
2021/12/06 20:08:15;;;;;;;15.30;10.60;;;;;;;6.08;98.31;100936.56;10461606;28;20120;-72
2021/12/06 20:13:15;;;;;;;15.90;11.40;;;;;;;6.29;97.89;100981.44;10461880;28;20045;-71
2021/12/06 20:18:16;;;;;;;16.92;10.77;;;;;;;6.43;97.74;101001.41;10461145;28;20051;-71
2021/12/06 20:23:18;;;;;;;15.13;10.93;;;;;;;6.25;98.45;100979.19;10443787;28;20037;-71
2021/12/06 20:28:19;;;;;;;17.75;11.65;;;;;;;6.46;98.46;100993.28;10442895;28;20037;-72
2021/12/06 20:33:20;;;;;;;18.17;11.50;;;;;;;6.08;98.79;100933.91;10461269;28;20489;-72
2021/12/06 20:38:22;;;;;;;20.33;11.13;;;;;;;5.52;98.77;100838.28;10460566;28;20037;-72
2021/12/06 20:43:23;;;;;;;16.58;11.18;;;;;;;6.49;98.51;100997.44;10460294;28;20128;-72
2021/12/06 20:48:24;;;;;;;14.07;10.32;;;;;;;6.08;98.98;100938.34;10461160;28;20464;-72
2021/12/06 20:53:25;;;;;;;14.77;9.95;;;;;;;6.19;98.77;100967.31;10459917;28;20045;-71
2021/12/06 20:58:26;;;;;;;14.57;9.25;;;;;;;6.20;98.42;100969.00;10459696;28;20040;-71
2021/12/06 21:03:28;;;;;;;15.10;10.07;;;;;;;6.11;98.63;100940.75;10460484;28;20037;-72
2021/12/06 21:08:31;;;;;;;15.02;9.95;;;;;;;6.24;98.55;100959.03;10459634;28;20063;-71
2021/12/06 21:13:56;;;;;;;15.38;9.20;;;;;;;6.46;98.61;100985.38;10459487;28;20045;-71
2021/12/06 21:19:10;;;;;;;14.67;10.23;;;;;;;6.53;99.23;101005.00;10476875;28;20036;-71
2021/12/06 21:24:12;;;;;;;14.43;9.73;;;;;;;6.28;98.61;100963.09;10501030;28;20131;-71
2021/12/06 21:29:13;;;;;;;15.35;9.88;;;;;;;6.60;98.98;101002.69;10500543;28;20044;-72
2021/12/06 21:34:14;;;;;;;12.80;10.07;;;;;;;6.03;98.92;100914.97;10500949;28;20044;-72
2021/12/06 21:39:15;;;;;;;16.77;10.75;;;;;;;5.90;98.63;100891.38;10500483;28;20484;-72
2021/12/06 21:44:16;;;;;;;15.23;9.43;;;;;;;6.16;98.51;100918.31;10500703;28;20408;-71
2021/12/06 21:49:17;;;;;;;14.88;9.95;;;;;;;5.55;98.31;100809.88;10499742;28;20063;-72
2021/12/06 21:54:18;;;;;;;13.32;9.38;;;;;;;6.58;98.62;100988.78;10498666;28;20076;-72
2021/12/06 21:59:19;;;;;;;15.00;9.55;;;;;;;5.78;98.38;100868.63;10499051;28;20029;-72
2021/12/06 22:04:20;;;;;;;11.88;8.80;;;;;;;5.38;98.23;100799.84;10500028;28;20057;-71
2021/12/06 22:09:21;;;;;;;14.27;9.23;;;;;;;6.54;98.27;101003.19;10499335;28;20413;-71
2021/12/06 22:14:24;;;;;;;15.60;10.55;;;;;;;6.49;98.55;101000.09;10497589;28;20369;-72
2021/12/06 22:19:28;;;;;;;15.43;9.95;;;;;;;5.64;98.66;100867.09;10499041;28;20128;-72
2021/12/06 22:24:29;;;;;;;14.60;10.25;;;;;;;6.05;98.67;100941.25;10498116;28;20067;-72
2021/12/06 22:29:30;;;;;;;14.25;9.88;;;;;;;5.75;98.44;100895.25;10497741;28;20063;-71
2021/12/06 22:34:31;;;;;;;14.32;10.02;;;;;;;6.46;98.78;101002.97;10497464;28;20048;-72
2021/12/06 22:39:32;;;;;;;14.10;9.77;;;;;;;6.12;99.03;100952.97;10479344;28;20403;-72
2021/12/06 22:44:33;;;;;;;15.63;9.82;;;;;;;5.54;98.45;100875.88;10497147;28;20139;-72
2021/12/06 22:49:34;;;;;;;14.48;10.55;;;;;;;6.38;98.56;101012.38;10497795;28;20056;-71
2021/12/06 22:54:36;;;;;;;18.83;11.07;;;;;;;6.14;99.06;100974.78;10496787;28;20044;-72
2021/12/06 22:59:37;;;;;;;14.40;9.98;;;;;;;6.05;99.22;100957.91;10497442;28;20040;-72
2021/12/06 23:04:38;;;;;;;17.08;10.43;;;;;;;5.80;98.64;100923.88;10496628;28;20123;-72
2021/12/06 23:09:40;;;;;;;17.63;10.18;;;;;;;6.30;98.58;101019.22;10478475;28;20087;-72
2021/12/06 23:14:41;;;;;;;18.10;10.23;;;;;;;5.53;98.67;100903.19;10496756;28;20051;-72
2021/12/06 23:19:43;;;;;;;14.10;9.70;;;;;;;5.81;98.78;100970.38;10496858;28;20535;-71